Coeur D'Alene - Pappy Boyington Field
KCOE : now visible

Airfield :











YOU CAN JOIN US ON...

 
LOGIN :

Register | Disclaimer

   EN    FR    IT 

 









Legend :    VFR   Marginal VFR   IFR   Intensive IFR   Very Intensive IFR
Visi :
Ceiling :
>= 8 km
>= 3000ft
5 to 8 km
1000 to 3000 ft
1500m to 5 km
500 to 1000 ft
800 to 1500m
200 to 500 ft
< 800m
< 200 ft
Symbols :   Thunderstorms  Fog  Heavy snow  Heavy precipitations  Wind > 20 kt






- Airport Elevation : 2320 ft


KCOE - Coeur D'Alene - Pappy Boyington Field

CURRENT METAR :
  • 282156Z AUTO 01007KT 1 3/4SM -SN BR FEW009 OVC015 M03/M04 A2969 RMK AO2 VIS 1 1/4V2 1/2 SLP102 P0001 T10281044 FZRANO

EXPIRED METARs :
  • 282144Z AUTO 36007KT 1 1/4SM -SN BR SCT009 OVC015 M03/M04 A2969 RMK AO2 VIS 3/4V2 P0001 FZRANO
  • 282129Z AUTO 01007KT 1 1/4SM -SN BR OVC009 M03/M04 A2969 RMK AO2 VIS 3/4V1 3/4 P0001 FZRANO
  • 282110Z AUTO 35006KT 3/4SM -SN BR OVC009 M03/M04 A2969 RMK AO2 CIG 008V012 P0001 FZRANO
  • 282056Z AUTO 01007KT 1 1/4SM -SN BR BKN011 OVC016 M03/M04 A2969 RMK AO2 VIS 3/4V2 SLP100 P0001 60001 T10281044 56007 FZRANO
  • 282017Z AUTO 02007KT 1 1/4SM -SN BR SCT007 OVC014 M03/M04 A2969 RMK AO2 P0001 FZRANO
  • 281956Z AUTO 03006KT 1/2SM SN FZFG BKN007 OVC013 M03/M04 A2969 RMK AO2 CIG 004V009 SLP100 P0000 T10281044 FZRANO
  • 281945Z AUTO 03007KT 1/2SM -SN FZFG FEW005 BKN009 OVC015 M03/M04 A2969 RMK AO2 P0000 FZRANO

TAF KCOE
Valid from the 28 at 18:00 until the 29 at 18:00 UTC


281742Z 2818/2918 04006KT 1SM -SN BR BKN011 OVC020
TEMPO 2818/2821 1/2SM SN OVC009
FM282300 03008KT 4SM -SN OVC010
FM290900 35007KT P6SM BKN025
KZSE FIR / North America



MET'MAP, your aeronautical weather chart ! - Copyright ORBIFLY December 2007 - Disclaimer

ORBIFLY MET'MAP TEAM :

Programming & Development : Alexandra Zaïnal
Original concept : Baudouin d'Aumeries
Technical & hardware support : Manuel Goepfert
Assistance : Marc-Olivier Méhu




SOURCES & CREDITS :

   NOAA       Earth
Advisory